sensor_id;sensor_type;location;lat;lon;timestamp;P1;durP1;ratioP1;P2;durP2;ratioP2
61531;SDS011;47397;48.194;11.632;2023-07-02T00:00:56;5.32;;;2.88;;
61531;SDS011;47397;48.194;11.632;2023-07-02T00:01:57;4.88;;;3.10;;
61531;SDS011;47397;48.194;11.632;2023-07-02T00:02:58;3.63;;;2.60;;
61531;SDS011;47397;48.194;11.632;2023-07-02T00:03:59;3.90;;;2.80;;
61531;SDS011;47397;48.194;11.632;2023-07-02T00:04:59;3.55;;;2.70;;
61531;SDS011;47397;48.194;11.632;2023-07-02T00:06:00;5.82;;;2.95;;
61531;SDS011;47397;48.194;11.632;2023-07-02T00:07:00;3.88;;;2.83;;
61531;SDS011;47397;48.194;11.632;2023-07-02T00:08:01;4.40;;;3.05;;
61531;SDS011;47397;48.194;11.632;2023-07-02T00:09:01;5.57;;;2.75;;
61531;SDS011;47397;48.194;11.632;2023-07-02T00:10:01;4.78;;;2.90;;
61531;SDS011;47397;48.194;11.632;2023-07-02T00:11:02;3.30;;;2.72;;
61531;SDS011;47397;48.194;11.632;2023-07-02T00:12:04;4.35;;;2.72;;
61531;SDS011;47397;48.194;11.632;2023-07-02T00:13:05;4.97;;;2.88;;
61531;SDS011;47397;48.194;11.632;2023-07-02T00:14:05;3.88;;;2.50;;
61531;SDS011;47397;48.194;11.632;2023-07-02T00:15:07;6.22;;;2.83;;
61531;SDS011;47397;48.194;11.632;2023-07-02T00:16:08;4.53;;;2.83;;
61531;SDS011;47397;48.194;11.632;2023-07-02T00:17:08;5.18;;;2.97;;
61531;SDS011;47397;48.194;11.632;2023-07-02T00:18:09;4.75;;;2.72;;
61531;SDS011;47397;48.194;11.632;2023-07-02T00:19:09;4.38;;;2.47;;
61531;SDS011;47397;48.194;11.632;2023-07-02T00:20:10;4.47;;;2.53;;
61531;SDS011;47397;48.194;11.632;2023-07-02T00:21:11;4.55;;;2.70;;
61531;SDS011;47397;48.194;11.632;2023-07-02T00:22:11;4.72;;;2.90;;
61531;SDS011;47397;48.194;11.632;2023-07-02T00:23:12;4.55;;;2.80;;
61531;SDS011;47397;48.194;11.632;2023-07-02T00:24:12;4.32;;;2.72;;
61531;SDS011;47397;48.194;11.632;2023-07-02T00:25:13;4.07;;;2.78;;
61531;SDS011;47397;48.194;11.632;2023-07-02T00:26:13;3.72;;;2.60;;
61531;SDS011;47397;48.194;11.632;2023-07-02T00:27:15;3.45;;;2.63;;
61531;SDS011;47397;48.194;11.632;2023-07-02T00:28:15;4.20;;;2.83;;
61531;SDS011;47397;48.194;11.632;2023-07-02T00:29:16;4.18;;;3.25;;
61531;SDS011;47397;48.194;11.632;2023-07-02T00:30:16;3.50;;;2.50;;
61531;SDS011;47397;48.194;11.632;2023-07-02T00:31:17;4.40;;;3.00;;
61531;SDS011;47397;48.194;11.632;2023-07-02T00:32:17;3.70;;;2.60;;
61531;SDS011;47397;48.194;11.632;2023-07-02T00:33:17;3.67;;;2.30;;
61531;SDS011;47397;48.194;11.632;2023-07-02T00:34:18;4.50;;;3.15;;
61531;SDS011;47397;48.194;11.632;2023-07-02T00:35:18;3.17;;;2.42;;
61531;SDS011;47397;48.194;11.632;2023-07-02T00:36:19;4.20;;;2.95;;
61531;SDS011;47397;48.194;11.632;2023-07-02T00:37:19;3.42;;;2.53;;
61531;SDS011;47397;48.194;11.632;2023-07-02T00:38:20;4.28;;;2.80;;
61531;SDS011;47397;48.194;11.632;2023-07-02T00:39:22;4.43;;;2.80;;
61531;SDS011;47397;48.194;11.632;2023-07-02T00:40:22;3.47;;;2.40;;
61531;SDS011;47397;48.194;11.632;2023-07-02T00:41:22;3.65;;;2.50;;
61531;SDS011;47397;48.194;11.632;2023-07-02T00:42:24;4.55;;;2.85;;
61531;SDS011;47397;48.194;11.632;2023-07-02T00:43:25;4.38;;;2.42;;
61531;SDS011;47397;48.194;11.632;2023-07-02T00:44:25;3.88;;;2.67;;
61531;SDS011;47397;48.194;11.632;2023-07-02T00:45:25;3.92;;;2.63;;
61531;SDS011;47397;48.194;11.632;2023-07-02T00:46:26;3.17;;;2.38;;
61531;SDS011;47397;48.194;11.632;2023-07-02T00:47:26;3.60;;;2.50;;
61531;SDS011;47397;48.194;11.632;2023-07-02T00:48:27;3.80;;;2.58;;
61531;SDS011;47397;48.194;11.632;2023-07-02T00:49:28;4.53;;;2.50;;
61531;SDS011;47397;48.194;11.632;2023-07-02T00:50:28;4.40;;;2.80;;
61531;SDS011;47397;48.194;11.632;2023-07-02T00:51:29;3.20;;;2.40;;
61531;SDS011;47397;48.194;11.632;2023-07-02T00:52:29;4.35;;;2.40;;
61531;SDS011;47397;48.194;11.632;2023-07-02T00:53:30;3.47;;;2.60;;
61531;SDS011;47397;48.194;11.632;2023-07-02T00:54:30;5.22;;;2.60;;
61531;SDS011;47397;48.194;11.632;2023-07-02T00:55:31;3.17;;;2.30;;
61531;SDS011;47397;48.194;11.632;2023-07-02T00:56:31;3.85;;;2.47;;
61531;SDS011;47397;48.194;11.632;2023-07-02T00:57:33;3.58;;;2.45;;
61531;SDS011;47397;48.194;11.632;2023-07-02T00:58:34;3.35;;;2.28;;
61531;SDS011;47397;48.194;11.632;2023-07-02T00:59:37;4.28;;;2.63;;
61531;SDS011;47397;48.194;11.632;2023-07-02T01:00:38;4.07;;;2.35;;
61531;SDS011;47397;48.194;11.632;2023-07-02T01:01:38;4.00;;;2.20;;
61531;SDS011;47397;48.194;11.632;2023-07-02T01:02:39;3.20;;;2.15;;
61531;SDS011;47397;48.194;11.632;2023-07-02T01:03:49;3.30;;;2.60;;
61531;SDS011;47397;48.194;11.632;2023-07-02T01:04:50;3.78;;;2.28;;
61531;SDS011;47397;48.194;11.632;2023-07-02T01:05:50;3.10;;;2.08;;
61531;SDS011;47397;48.194;11.632;2023-07-02T01:06:51;3.30;;;2.60;;
61531;SDS011;47397;48.194;11.632;2023-07-02T01:07:51;4.25;;;2.28;;
61531;SDS011;47397;48.194;11.632;2023-07-02T01:08:53;2.67;;;2.20;;
61531;SDS011;47397;48.194;11.632;2023-07-02T01:09:54;3.33;;;2.60;;
61531;SDS011;47397;48.194;11.632;2023-07-02T01:10:55;2.97;;;2.33;;
61531;SDS011;47397;48.194;11.632;2023-07-02T01:11:56;3.53;;;2.35;;
61531;SDS011;47397;48.194;11.632;2023-07-02T01:13:01;3.38;;;2.10;;
61531;SDS011;47397;48.194;11.632;2023-07-02T01:14:05;4.22;;;2.22;;
61531;SDS011;47397;48.194;11.632;2023-07-02T01:15:09;3.45;;;2.17;;
61531;SDS011;47397;48.194;11.632;2023-07-02T01:16:10;3.08;;;1.85;;
61531;SDS011;47397;48.194;11.632;2023-07-02T01:17:10;2.90;;;2.10;;
61531;SDS011;47397;48.194;11.632;2023-07-02T01:18:11;2.70;;;1.85;;
61531;SDS011;47397;48.194;11.632;2023-07-02T01:19:15;3.20;;;1.80;;
61531;SDS011;47397;48.194;11.632;2023-07-02T01:20:20;2.95;;;1.83;;
61531;SDS011;47397;48.194;11.632;2023-07-02T01:21:21;2.63;;;1.80;;
61531;SDS011;47397;48.194;11.632;2023-07-02T01:22:24;3.10;;;1.83;;
61531;SDS011;47397;48.194;11.632;2023-07-02T01:23:26;3.25;;;1.65;;
61531;SDS011;47397;48.194;11.632;2023-07-02T01:24:27;2.75;;;1.70;;
61531;SDS011;47397;48.194;11.632;2023-07-02T01:25:27;2.38;;;1.60;;
61531;SDS011;47397;48.194;11.632;2023-07-02T01:26:29;2.47;;;1.80;;
61531;SDS011;47397;48.194;11.632;2023-07-02T01:27:30;2.85;;;1.70;;
61531;SDS011;47397;48.194;11.632;2023-07-02T01:28:34;3.25;;;1.90;;
61531;SDS011;47397;48.194;11.632;2023-07-02T01:29:35;2.60;;;1.83;;
61531;SDS011;47397;48.194;11.632;2023-07-02T01:30:36;2.85;;;1.70;;
61531;SDS011;47397;48.194;11.632;2023-07-02T01:31:36;3.00;;;1.50;;
61531;SDS011;47397;48.194;11.632;2023-07-02T01:32:37;2.40;;;1.42;;
61531;SDS011;47397;48.194;11.632;2023-07-02T01:33:38;2.60;;;1.52;;
61531;SDS011;47397;48.194;11.632;2023-07-02T01:34:39;2.20;;;1.60;;
61531;SDS011;47397;48.194;11.632;2023-07-02T01:35:40;2.65;;;1.40;;
61531;SDS011;47397;48.194;11.632;2023-07-02T01:36:41;2.35;;;1.50;;
61531;SDS011;47397;48.194;11.632;2023-07-02T01:37:41;2.28;;;1.42;;
61531;SDS011;47397;48.194;11.632;2023-07-02T01:38:42;3.42;;;1.80;;
61531;SDS011;47397;48.194;11.632;2023-07-02T01:39:42;3.78;;;1.60;;
61531;SDS011;47397;48.194;11.632;2023-07-02T01:40:43;2.88;;;1.70;;
61531;SDS011;47397;48.194;11.632;2023-07-02T01:41:44;2.40;;;1.50;;
61531;SDS011;47397;48.194;11.632;2023-07-02T01:42:45;2.70;;;1.90;;
61531;SDS011;47397;48.194;11.632;2023-07-02T01:43:46;3.42;;;1.60;;
61531;SDS011;47397;48.194;11.632;2023-07-02T01:44:46;3.38;;;1.60;;
61531;SDS011;47397;48.194;11.632;2023-07-02T01:45:48;2.22;;;1.60;;
61531;SDS011;47397;48.194;11.632;2023-07-02T01:46:48;2.30;;;1.80;;
61531;SDS011;47397;48.194;11.632;2023-07-02T01:47:49;3.15;;;1.50;;
61531;SDS011;47397;48.194;11.632;2023-07-02T01:48:49;2.45;;;1.60;;
61531;SDS011;47397;48.194;11.632;2023-07-02T01:49:50;2.25;;;1.50;;
61531;SDS011;47397;48.194;11.632;2023-07-02T01:50:52;3.58;;;1.90;;
61531;SDS011;47397;48.194;11.632;2023-07-02T01:51:53;3.38;;;1.55;;
61531;SDS011;47397;48.194;11.632;2023-07-02T01:52:54;3.17;;;1.60;;
61531;SDS011;47397;48.194;11.632;2023-07-02T01:53:54;2.60;;;1.58;;
61531;SDS011;47397;48.194;11.632;2023-07-02T01:54:55;3.53;;;1.73;;
61531;SDS011;47397;48.194;11.632;2023-07-02T01:55:55;2.80;;;1.58;;
61531;SDS011;47397;48.194;11.632;2023-07-02T01:56:55;2.03;;;1.42;;
61531;SDS011;47397;48.194;11.632;2023-07-02T01:57:56;2.50;;;1.48;;
61531;SDS011;47397;48.194;11.632;2023-07-02T01:58:57;3.40;;;1.42;;
61531;SDS011;47397;48.194;11.632;2023-07-02T01:59:58;2.70;;;1.63;;
61531;SDS011;47397;48.194;11.632;2023-07-02T02:00:58;3.15;;;1.67;;
61531;SDS011;47397;48.194;11.632;2023-07-02T02:01:59;2.50;;;1.50;;
61531;SDS011;47397;48.194;11.632;2023-07-02T02:02:59;2.42;;;1.80;;
61531;SDS011;47397;48.194;11.632;2023-07-02T02:04:00;2.90;;;1.60;;
61531;SDS011;47397;48.194;11.632;2023-07-02T02:05:00;2.47;;;1.77;;
61531;SDS011;47397;48.194;11.632;2023-07-02T02:06:02;2.78;;;1.90;;
61531;SDS011;47397;48.194;11.632;2023-07-02T02:07:02;2.22;;;1.50;;
61531;SDS011;47397;48.194;11.632;2023-07-02T02:08:03;2.95;;;1.75;;
61531;SDS011;47397;48.194;11.632;2023-07-02T02:09:03;2.17;;;1.52;;
61531;SDS011;47397;48.194;11.632;2023-07-02T02:10:05;2.15;;;1.48;;
61531;SDS011;47397;48.194;11.632;2023-07-02T02:11:06;2.20;;;1.60;;
61531;SDS011;47397;48.194;11.632;2023-07-02T02:12:07;2.70;;;1.33;;
61531;SDS011;47397;48.194;11.632;2023-07-02T02:13:07;4.05;;;1.75;;
61531;SDS011;47397;48.194;11.632;2023-07-02T02:14:08;2.38;;;1.40;;
61531;SDS011;47397;48.194;11.632;2023-07-02T02:15:08;3.10;;;1.92;;
61531;SDS011;47397;48.194;11.632;2023-07-02T02:16:09;2.25;;;1.33;;
61531;SDS011;47397;48.194;11.632;2023-07-02T02:17:11;2.00;;;1.60;;
61531;SDS011;47397;48.194;11.632;2023-07-02T02:18:11;3.25;;;1.55;;
61531;SDS011;47397;48.194;11.632;2023-07-02T02:19:11;2.63;;;1.70;;
61531;SDS011;47397;48.194;11.632;2023-07-02T02:20:12;2.63;;;1.80;;
61531;SDS011;47397;48.194;11.632;2023-07-02T02:21:14;2.90;;;1.80;;
61531;SDS011;47397;48.194;11.632;2023-07-02T02:22:14;2.65;;;1.60;;
61531;SDS011;47397;48.194;11.632;2023-07-02T02:23:15;2.67;;;1.70;;
61531;SDS011;47397;48.194;11.632;2023-07-02T02:24:15;2.95;;;1.60;;
61531;SDS011;47397;48.194;11.632;2023-07-02T02:25:15;5.22;;;1.90;;
61531;SDS011;47397;48.194;11.632;2023-07-02T02:26:16;2.50;;;1.70;;
61531;SDS011;47397;48.194;11.632;2023-07-02T02:27:16;2.75;;;1.80;;
61531;SDS011;47397;48.194;11.632;2023-07-02T02:28:17;2.45;;;1.63;;
61531;SDS011;47397;48.194;11.632;2023-07-02T02:29:17;2.78;;;1.92;;
61531;SDS011;47397;48.194;11.632;2023-07-02T02:30:18;2.95;;;1.60;;
61531;SDS011;47397;48.194;11.632;2023-07-02T02:31:18;2.38;;;1.35;;
61531;SDS011;47397;48.194;11.632;2023-07-02T02:32:18;2.00;;;1.48;;
61531;SDS011;47397;48.194;11.632;2023-07-02T02:33:19;2.38;;;1.50;;
61531;SDS011;47397;48.194;11.632;2023-07-02T02:34:19;2.40;;;1.83;;
61531;SDS011;47397;48.194;11.632;2023-07-02T02:35:20;2.50;;;1.75;;
61531;SDS011;47397;48.194;11.632;2023-07-02T02:36:22;2.50;;;1.80;;
61531;SDS011;47397;48.194;11.632;2023-07-02T02:37:22;2.60;;;1.80;;
61531;SDS011;47397;48.194;11.632;2023-07-02T02:38:22;2.58;;;1.80;;
61531;SDS011;47397;48.194;11.632;2023-07-02T02:39:23;2.45;;;1.70;;
61531;SDS011;47397;48.194;11.632;2023-07-02T02:40:23;2.65;;;1.80;;
61531;SDS011;47397;48.194;11.632;2023-07-02T02:41:24;2.38;;;1.63;;
61531;SDS011;47397;48.194;11.632;2023-07-02T02:42:24;2.63;;;1.70;;
61531;SDS011;47397;48.194;11.632;2023-07-02T02:43:25;2.30;;;1.67;;
61531;SDS011;47397;48.194;11.632;2023-07-02T02:44:25;2.42;;;1.52;;
61531;SDS011;47397;48.194;11.632;2023-07-02T02:45:26;2.28;;;1.58;;
61531;SDS011;47397;48.194;11.632;2023-07-02T02:46:26;2.97;;;1.98;;
61531;SDS011;47397;48.194;11.632;2023-07-02T02:47:27;2.35;;;1.70;;
61531;SDS011;47397;48.194;11.632;2023-07-02T02:48:27;3.00;;;1.80;;
61531;SDS011;47397;48.194;11.632;2023-07-02T02:49:28;2.58;;;1.60;;
61531;SDS011;47397;48.194;11.632;2023-07-02T02:50:28;2.45;;;1.70;;
61531;SDS011;47397;48.194;11.632;2023-07-02T02:51:30;3.08;;;1.80;;
61531;SDS011;47397;48.194;11.632;2023-07-02T02:52:30;2.85;;;1.77;;
61531;SDS011;47397;48.194;11.632;2023-07-02T02:53:31;2.92;;;1.77;;
61531;SDS011;47397;48.194;11.632;2023-07-02T02:54:31;3.10;;;1.65;;
61531;SDS011;47397;48.194;11.632;2023-07-02T02:55:31;2.58;;;1.80;;
61531;SDS011;47397;48.194;11.632;2023-07-02T02:56:32;3.17;;;1.67;;
61531;SDS011;47397;48.194;11.632;2023-07-02T02:57:32;2.63;;;1.90;;
61531;SDS011;47397;48.194;11.632;2023-07-02T02:58:33;2.80;;;1.70;;
61531;SDS011;47397;48.194;11.632;2023-07-02T02:59:33;2.30;;;1.70;;
61531;SDS011;47397;48.194;11.632;2023-07-02T03:00:34;2.80;;;1.90;;
61531;SDS011;47397;48.194;11.632;2023-07-02T03:01:34;2.88;;;1.80;;
61531;SDS011;47397;48.194;11.632;2023-07-02T03:02:35;2.78;;;1.95;;
61531;SDS011;47397;48.194;11.632;2023-07-02T03:03:36;2.60;;;1.70;;
61531;SDS011;47397;48.194;11.632;2023-07-02T03:04:38;3.75;;;2.08;;
61531;SDS011;47397;48.194;11.632;2023-07-02T03:05:38;2.40;;;1.40;;
61531;SDS011;47397;48.194;11.632;2023-07-02T03:06:40;2.80;;;1.85;;
61531;SDS011;47397;48.194;11.632;2023-07-02T03:07:41;2.50;;;1.70;;
61531;SDS011;47397;48.194;11.632;2023-07-02T03:08:41;2.45;;;1.70;;
61531;SDS011;47397;48.194;11.632;2023-07-02T03:09:42;2.35;;;1.48;;
61531;SDS011;47397;48.194;11.632;2023-07-02T03:10:42;2.78;;;1.60;;
61531;SDS011;47397;48.194;11.632;2023-07-02T03:11:43;2.88;;;1.63;;
61531;SDS011;47397;48.194;11.632;2023-07-02T03:12:43;2.90;;;1.60;;
61531;SDS011;47397;48.194;11.632;2023-07-02T03:13:44;2.67;;;1.92;;
61531;SDS011;47397;48.194;11.632;2023-07-02T03:14:44;2.60;;;1.83;;
61531;SDS011;47397;48.194;11.632;2023-07-02T03:15:45;3.53;;;1.90;;
61531;SDS011;47397;48.194;11.632;2023-07-02T03:16:45;2.35;;;1.77;;
61531;SDS011;47397;48.194;11.632;2023-07-02T03:17:45;3.88;;;1.83;;
61531;SDS011;47397;48.194;11.632;2023-07-02T03:18:46;3.25;;;1.83;;
61531;SDS011;47397;48.194;11.632;2023-07-02T03:19:46;5.10;;;2.35;;
61531;SDS011;47397;48.194;11.632;2023-07-02T03:20:47;5.45;;;2.35;;
61531;SDS011;47397;48.194;11.632;2023-07-02T03:21:49;4.55;;;2.60;;
61531;SDS011;47397;48.194;11.632;2023-07-02T03:22:49;5.75;;;2.90;;
61531;SDS011;47397;48.194;11.632;2023-07-02T03:23:50;6.00;;;2.67;;
61531;SDS011;47397;48.194;11.632;2023-07-02T03:24:50;5.68;;;2.88;;
61531;SDS011;47397;48.194;11.632;2023-07-02T03:25:52;4.47;;;2.58;;
61531;SDS011;47397;48.194;11.632;2023-07-02T03:26:53;5.07;;;2.78;;
61531;SDS011;47397;48.194;11.632;2023-07-02T03:27:53;4.60;;;2.47;;
61531;SDS011;47397;48.194;11.632;2023-07-02T03:28:53;4.03;;;2.67;;
61531;SDS011;47397;48.194;11.632;2023-07-02T03:29:54;3.35;;;2.40;;
61531;SDS011;47397;48.194;11.632;2023-07-02T03:30:54;5.07;;;2.60;;
61531;SDS011;47397;48.194;11.632;2023-07-02T03:31:55;3.30;;;2.20;;
61531;SDS011;47397;48.194;11.632;2023-07-02T03:32:55;4.35;;;2.40;;
61531;SDS011;47397;48.194;11.632;2023-07-02T03:33:55;4.03;;;2.25;;
61531;SDS011;47397;48.194;11.632;2023-07-02T03:34:56;4.32;;;2.67;;
61531;SDS011;47397;48.194;11.632;2023-07-02T03:35:56;3.88;;;2.40;;
61531;SDS011;47397;48.194;11.632;2023-07-02T03:36:58;3.65;;;2.50;;
61531;SDS011;47397;48.194;11.632;2023-07-02T03:37:59;4.07;;;2.70;;
61531;SDS011;47397;48.194;11.632;2023-07-02T03:38:59;3.85;;;2.60;;
61531;SDS011;47397;48.194;11.632;2023-07-02T03:40:00;5.00;;;2.60;;
61531;SDS011;47397;48.194;11.632;2023-07-02T03:41:00;4.03;;;2.50;;
61531;SDS011;47397;48.194;11.632;2023-07-02T03:42:01;3.35;;;2.35;;
61531;SDS011;47397;48.194;11.632;2023-07-02T03:43:01;4.57;;;2.47;;
61531;SDS011;47397;48.194;11.632;2023-07-02T03:44:01;4.22;;;2.50;;
61531;SDS011;47397;48.194;11.632;2023-07-02T03:45:02;3.67;;;2.30;;
61531;SDS011;47397;48.194;11.632;2023-07-02T03:46:03;4.95;;;2.42;;
61531;SDS011;47397;48.194;11.632;2023-07-02T03:47:03;3.47;;;2.20;;
61531;SDS011;47397;48.194;11.632;2023-07-02T03:48:04;3.90;;;2.30;;
61531;SDS011;47397;48.194;11.632;2023-07-02T03:49:05;4.25;;;2.55;;
61531;SDS011;47397;48.194;11.632;2023-07-02T03:50:08;3.80;;;2.72;;
61531;SDS011;47397;48.194;11.632;2023-07-02T03:51:10;4.57;;;2.63;;
61531;SDS011;47397;48.194;11.632;2023-07-02T03:52:12;3.33;;;2.30;;
61531;SDS011;47397;48.194;11.632;2023-07-02T03:53:12;4.47;;;2.75;;
61531;SDS011;47397;48.194;11.632;2023-07-02T03:54:13;3.80;;;2.38;;
61531;SDS011;47397;48.194;11.632;2023-07-02T03:55:13;5.00;;;2.45;;
61531;SDS011;47397;48.194;11.632;2023-07-02T03:56:14;4.78;;;2.40;;
61531;SDS011;47397;48.194;11.632;2023-07-02T03:57:14;5.68;;;2.60;;
61531;SDS011;47397;48.194;11.632;2023-07-02T03:58:15;5.32;;;2.50;;
61531;SDS011;47397;48.194;11.632;2023-07-02T03:59:15;3.60;;;2.17;;
61531;SDS011;47397;48.194;11.632;2023-07-02T04:00:16;4.35;;;2.30;;
61531;SDS011;47397;48.194;11.632;2023-07-02T04:01:16;3.35;;;2.20;;
61531;SDS011;47397;48.194;11.632;2023-07-02T04:02:17;4.72;;;2.40;;
61531;SDS011;47397;48.194;11.632;2023-07-02T04:03:17;4.45;;;2.60;;
61531;SDS011;47397;48.194;11.632;2023-07-02T04:04:18;4.38;;;2.40;;
61531;SDS011;47397;48.194;11.632;2023-07-02T04:05:18;4.38;;;2.67;;
61531;SDS011;47397;48.194;11.632;2023-07-02T04:06:19;3.17;;;2.35;;
61531;SDS011;47397;48.194;11.632;2023-07-02T04:07:20;4.18;;;2.60;;
61531;SDS011;47397;48.194;11.632;2023-07-02T04:08:21;3.85;;;2.67;;
61531;SDS011;47397;48.194;11.632;2023-07-02T04:09:21;3.60;;;2.47;;
61531;SDS011;47397;48.194;11.632;2023-07-02T04:10:22;5.43;;;2.78;;
61531;SDS011;47397;48.194;11.632;2023-07-02T04:11:22;3.60;;;2.40;;
61531;SDS011;47397;48.194;11.632;2023-07-02T04:12:23;4.70;;;2.65;;
61531;SDS011;47397;48.194;11.632;2023-07-02T04:13:23;4.80;;;2.50;;
61531;SDS011;47397;48.194;11.632;2023-07-02T04:14:23;4.28;;;2.70;;
61531;SDS011;47397;48.194;11.632;2023-07-02T04:15:24;4.78;;;3.00;;
61531;SDS011;47397;48.194;11.632;2023-07-02T04:16:24;5.00;;;2.92;;
61531;SDS011;47397;48.194;11.632;2023-07-02T04:17:25;3.97;;;2.88;;
61531;SDS011;47397;48.194;11.632;2023-07-02T04:18:25;3.83;;;2.60;;
61531;SDS011;47397;48.194;11.632;2023-07-02T04:19:25;3.38;;;2.65;;
61531;SDS011;47397;48.194;11.632;2023-07-02T04:20:26;5.07;;;2.75;;
61531;SDS011;47397;48.194;11.632;2023-07-02T04:21:26;6.28;;;2.80;;
61531;SDS011;47397;48.194;11.632;2023-07-02T04:22:28;4.38;;;2.95;;
61531;SDS011;47397;48.194;11.632;2023-07-02T04:23:29;3.95;;;2.60;;
61531;SDS011;47397;48.194;11.632;2023-07-02T04:24:29;4.85;;;3.20;;
61531;SDS011;47397;48.194;11.632;2023-07-02T04:25:29;4.47;;;2.85;;
61531;SDS011;47397;48.194;11.632;2023-07-02T04:26:30;4.68;;;2.67;;
61531;SDS011;47397;48.194;11.632;2023-07-02T04:27:30;5.47;;;2.80;;
61531;SDS011;47397;48.194;11.632;2023-07-02T04:28:31;5.05;;;3.22;;
61531;SDS011;47397;48.194;11.632;2023-07-02T04:29:31;4.35;;;2.67;;
61531;SDS011;47397;48.194;11.632;2023-07-02T04:30:32;4.97;;;3.00;;
61531;SDS011;47397;48.194;11.632;2023-07-02T04:31:32;5.25;;;2.78;;
61531;SDS011;47397;48.194;11.632;2023-07-02T04:32:32;4.40;;;2.80;;
61531;SDS011;47397;48.194;11.632;2023-07-02T04:33:33;5.03;;;3.10;;
61531;SDS011;47397;48.194;11.632;2023-07-02T04:34:33;3.15;;;2.53;;
61531;SDS011;47397;48.194;11.632;2023-07-02T04:35:34;7.03;;;2.72;;
61531;SDS011;47397;48.194;11.632;2023-07-02T04:36:34;4.07;;;2.83;;
61531;SDS011;47397;48.194;11.632;2023-07-02T04:37:36;4.47;;;2.85;;
61531;SDS011;47397;48.194;11.632;2023-07-02T04:38:37;5.03;;;2.80;;
61531;SDS011;47397;48.194;11.632;2023-07-02T04:39:37;3.95;;;2.88;;
61531;SDS011;47397;48.194;11.632;2023-07-02T04:40:38;4.72;;;2.72;;
61531;SDS011;47397;48.194;11.632;2023-07-02T04:41:38;4.00;;;2.92;;
61531;SDS011;47397;48.194;11.632;2023-07-02T04:42:39;3.63;;;2.65;;
61531;SDS011;47397;48.194;11.632;2023-07-02T04:43:41;5.07;;;2.70;;
61531;SDS011;47397;48.194;11.632;2023-07-02T04:44:41;4.43;;;2.78;;
61531;SDS011;47397;48.194;11.632;2023-07-02T04:45:42;6.22;;;3.30;;
61531;SDS011;47397;48.194;11.632;2023-07-02T04:46:42;4.78;;;2.92;;
61531;SDS011;47397;48.194;11.632;2023-07-02T04:47:43;4.32;;;2.72;;
61531;SDS011;47397;48.194;11.632;2023-07-02T04:48:43;3.47;;;2.67;;
61531;SDS011;47397;48.194;11.632;2023-07-02T04:49:43;5.10;;;2.92;;
61531;SDS011;47397;48.194;11.632;2023-07-02T04:50:44;3.85;;;2.80;;
61531;SDS011;47397;48.194;11.632;2023-07-02T04:51:44;3.22;;;2.75;;
61531;SDS011;47397;48.194;11.632;2023-07-02T04:52:46;4.43;;;2.83;;
61531;SDS011;47397;48.194;11.632;2023-07-02T04:53:46;4.75;;;3.00;;
61531;SDS011;47397;48.194;11.632;2023-07-02T04:54:47;6.15;;;3.10;;
61531;SDS011;47397;48.194;11.632;2023-07-02T04:55:47;4.85;;;2.47;;
61531;SDS011;47397;48.194;11.632;2023-07-02T04:56:48;4.07;;;2.97;;
61531;SDS011;47397;48.194;11.632;2023-07-02T04:57:48;6.13;;;3.25;;
61531;SDS011;47397;48.194;11.632;2023-07-02T04:58:49;3.80;;;2.85;;
61531;SDS011;47397;48.194;11.632;2023-07-02T04:59:49;5.07;;;2.80;;
61531;SDS011;47397;48.194;11.632;2023-07-02T05:00:50;4.78;;;2.75;;
61531;SDS011;47397;48.194;11.632;2023-07-02T05:01:50;5.20;;;2.60;;
61531;SDS011;47397;48.194;11.632;2023-07-02T05:02:51;5.93;;;2.72;;
61531;SDS011;47397;48.194;11.632;2023-07-02T05:03:51;4.60;;;2.88;;
61531;SDS011;47397;48.194;11.632;2023-07-02T05:04:51;5.28;;;2.45;;
61531;SDS011;47397;48.194;11.632;2023-07-02T05:05:52;4.70;;;2.65;;
61531;SDS011;47397;48.194;11.632;2023-07-02T05:06:52;4.50;;;2.47;;
61531;SDS011;47397;48.194;11.632;2023-07-02T05:07:54;4.78;;;2.70;;
61531;SDS011;47397;48.194;11.632;2023-07-02T05:08:55;4.43;;;2.70;;
61531;SDS011;47397;48.194;11.632;2023-07-02T05:09:55;5.60;;;2.88;;
61531;SDS011;47397;48.194;11.632;2023-07-02T05:10:55;4.38;;;3.03;;
61531;SDS011;47397;48.194;11.632;2023-07-02T05:11:56;5.53;;;3.20;;
61531;SDS011;47397;48.194;11.632;2023-07-02T05:12:56;4.32;;;2.80;;
61531;SDS011;47397;48.194;11.632;2023-07-02T05:13:57;3.88;;;2.60;;
61531;SDS011;47397;48.194;11.632;2023-07-02T05:14:57;5.43;;;2.97;;
61531;SDS011;47397;48.194;11.632;2023-07-02T05:15:58;4.38;;;2.78;;
61531;SDS011;47397;48.194;11.632;2023-07-02T05:16:58;4.72;;;2.95;;
61531;SDS011;47397;48.194;11.632;2023-07-02T05:17:58;5.80;;;3.10;;
61531;SDS011;47397;48.194;11.632;2023-07-02T05:18:59;3.42;;;2.60;;
61531;SDS011;47397;48.194;11.632;2023-07-02T05:19:59;5.53;;;2.92;;
61531;SDS011;47397;48.194;11.632;2023-07-02T05:21:00;4.47;;;2.97;;
61531;SDS011;47397;48.194;11.632;2023-07-02T05:22:00;5.30;;;3.03;;
61531;SDS011;47397;48.194;11.632;2023-07-02T05:23:02;4.03;;;2.92;;
61531;SDS011;47397;48.194;11.632;2023-07-02T05:24:02;5.20;;;3.10;;
61531;SDS011;47397;48.194;11.632;2023-07-02T05:25:03;5.47;;;2.97;;
61531;SDS011;47397;48.194;11.632;2023-07-02T05:26:04;4.15;;;2.90;;
61531;SDS011;47397;48.194;11.632;2023-07-02T05:27:04;7.40;;;3.00;;
61531;SDS011;47397;48.194;11.632;2023-07-02T05:28:05;6.63;;;2.92;;
61531;SDS011;47397;48.194;11.632;2023-07-02T05:29:05;4.07;;;2.72;;
61531;SDS011;47397;48.194;11.632;2023-07-02T05:30:06;4.20;;;2.67;;
61531;SDS011;47397;48.194;11.632;2023-07-02T05:31:07;5.07;;;2.80;;
61531;SDS011;47397;48.194;11.632;2023-07-02T05:32:08;4.05;;;2.70;;
61531;SDS011;47397;48.194;11.632;2023-07-02T05:33:08;5.18;;;2.97;;
61531;SDS011;47397;48.194;11.632;2023-07-02T05:34:09;5.78;;;3.05;;
61531;SDS011;47397;48.194;11.632;2023-07-02T05:35:09;4.55;;;2.95;;
61531;SDS011;47397;48.194;11.632;2023-07-02T05:36:10;4.32;;;3.05;;
61531;SDS011;47397;48.194;11.632;2023-07-02T05:37:10;4.07;;;2.75;;
61531;SDS011;47397;48.194;11.632;2023-07-02T05:38:12;3.70;;;2.88;;
61531;SDS011;47397;48.194;11.632;2023-07-02T05:39:12;4.45;;;3.08;;
61531;SDS011;47397;48.194;11.632;2023-07-02T05:40:13;4.13;;;2.70;;
61531;SDS011;47397;48.194;11.632;2023-07-02T05:41:17;4.65;;;3.25;;
61531;SDS011;47397;48.194;11.632;2023-07-02T05:42:18;4.28;;;2.90;;
61531;SDS011;47397;48.194;11.632;2023-07-02T05:43:18;5.65;;;3.00;;
61531;SDS011;47397;48.194;11.632;2023-07-02T05:44:19;5.32;;;2.97;;
61531;SDS011;47397;48.194;11.632;2023-07-02T05:45:19;5.07;;;2.90;;
61531;SDS011;47397;48.194;11.632;2023-07-02T05:46:20;6.40;;;3.00;;
61531;SDS011;47397;48.194;11.632;2023-07-02T05:47:20;5.05;;;2.90;;
61531;SDS011;47397;48.194;11.632;2023-07-02T05:48:21;3.92;;;2.90;;
61531;SDS011;47397;48.194;11.632;2023-07-02T05:49:21;4.57;;;3.00;;
61531;SDS011;47397;48.194;11.632;2023-07-02T05:50:22;4.95;;;2.90;;
61531;SDS011;47397;48.194;11.632;2023-07-02T05:51:23;4.15;;;2.90;;
61531;SDS011;47397;48.194;11.632;2023-07-02T05:52:24;3.90;;;2.97;;
61531;SDS011;47397;48.194;11.632;2023-07-02T05:53:26;3.85;;;2.60;;
61531;SDS011;47397;48.194;11.632;2023-07-02T05:54:26;4.72;;;3.15;;
61531;SDS011;47397;48.194;11.632;2023-07-02T05:55:27;4.22;;;3.03;;
61531;SDS011;47397;48.194;11.632;2023-07-02T05:56:27;4.25;;;2.70;;
61531;SDS011;47397;48.194;11.632;2023-07-02T05:57:28;4.10;;;2.67;;
61531;SDS011;47397;48.194;11.632;2023-07-02T05:58:28;4.32;;;2.78;;
61531;SDS011;47397;48.194;11.632;2023-07-02T05:59:28;4.32;;;2.88;;
61531;SDS011;47397;48.194;11.632;2023-07-02T06:00:29;6.22;;;2.90;;